sensor_id;sensor_type;location;lat;lon;timestamp;P1;durP1;ratioP1;P2;durP2;ratioP2
50379;SDS011;37474;59.468;18.040;2023-08-01T00:00:08;7.95;;;3.60;;
50379;SDS011;37474;59.468;18.040;2023-08-01T00:02:38;8.82;;;3.67;;
50379;SDS011;37474;59.468;18.040;2023-08-01T00:05:09;7.22;;;3.47;;
50379;SDS011;37474;59.468;18.040;2023-08-01T00:07:37;7.82;;;3.75;;
50379;SDS011;37474;59.468;18.040;2023-08-01T00:10:06;8.32;;;3.58;;
50379;SDS011;37474;59.468;18.040;2023-08-01T00:12:35;10.80;;;3.75;;
50379;SDS011;37474;59.468;18.040;2023-08-01T00:15:04;12.02;;;3.75;;
50379;SDS011;37474;59.468;18.040;2023-08-01T00:17:33;12.40;;;3.83;;
50379;SDS011;37474;59.468;18.040;2023-08-01T00:20:04;13.45;;;4.30;;
50379;SDS011;37474;59.468;18.040;2023-08-01T00:22:33;13.70;;;4.35;;
50379;SDS011;37474;59.468;18.040;2023-08-01T00:25:02;8.25;;;3.78;;
50379;SDS011;37474;59.468;18.040;2023-08-01T00:27:31;8.70;;;4.50;;
50379;SDS011;37474;59.468;18.040;2023-08-01T00:30:06;18.53;;;4.70;;
50379;SDS011;37474;59.468;18.040;2023-08-01T00:32:36;15.15;;;4.32;;
50379;SDS011;37474;59.468;18.040;2023-08-01T00:35:06;12.25;;;4.45;;
50379;SDS011;37474;59.468;18.040;2023-08-01T00:37:36;7.35;;;3.95;;
50379;SDS011;37474;59.468;18.040;2023-08-01T00:40:06;13.10;;;3.95;;
50379;SDS011;37474;59.468;18.040;2023-08-01T00:42:35;11.73;;;4.60;;
50379;SDS011;37474;59.468;18.040;2023-08-01T00:45:05;9.98;;;5.38;;
50379;SDS011;37474;59.468;18.040;2023-08-01T00:47:34;9.85;;;4.63;;
50379;SDS011;37474;59.468;18.040;2023-08-01T00:50:03;12.00;;;4.80;;
50379;SDS011;37474;59.468;18.040;2023-08-01T00:52:35;13.55;;;4.63;;
50379;SDS011;37474;59.468;18.040;2023-08-01T00:55:04;9.63;;;4.28;;
50379;SDS011;37474;59.468;18.040;2023-08-01T00:57:34;9.30;;;4.20;;
50379;SDS011;37474;59.468;18.040;2023-08-01T01:00:03;13.32;;;4.45;;
50379;SDS011;37474;59.468;18.040;2023-08-01T01:02:32;10.07;;;4.57;;
50379;SDS011;37474;59.468;18.040;2023-08-01T01:05:02;9.40;;;4.50;;
50379;SDS011;37474;59.468;18.040;2023-08-01T01:07:33;10.07;;;4.57;;
50379;SDS011;37474;59.468;18.040;2023-08-01T01:10:03;14.13;;;4.88;;
50379;SDS011;37474;59.468;18.040;2023-08-01T01:12:31;13.07;;;4.45;;
50379;SDS011;37474;59.468;18.040;2023-08-01T01:15:00;8.88;;;4.28;;
50379;SDS011;37474;59.468;18.040;2023-08-01T01:17:29;7.53;;;4.50;;
50379;SDS011;37474;59.468;18.040;2023-08-01T01:19:57;7.63;;;4.30;;
50379;SDS011;37474;59.468;18.040;2023-08-01T01:22:28;13.80;;;5.10;;
50379;SDS011;37474;59.468;18.040;2023-08-01T01:24:58;10.80;;;4.60;;
50379;SDS011;37474;59.468;18.040;2023-08-01T01:27:27;7.63;;;4.10;;
50379;SDS011;37474;59.468;18.040;2023-08-01T01:29:57;8.98;;;4.00;;
50379;SDS011;37474;59.468;18.040;2023-08-01T01:32:27;9.43;;;4.47;;
50379;SDS011;37474;59.468;18.040;2023-08-01T01:34:57;9.43;;;3.88;;
50379;SDS011;37474;59.468;18.040;2023-08-01T01:37:26;10.07;;;4.07;;
50379;SDS011;37474;59.468;18.040;2023-08-01T01:39:55;10.80;;;4.30;;
50379;SDS011;37474;59.468;18.040;2023-08-01T01:42:24;12.90;;;5.05;;
50379;SDS011;37474;59.468;18.040;2023-08-01T01:44:53;13.90;;;4.90;;
50379;SDS011;37474;59.468;18.040;2023-08-01T01:47:21;16.87;;;5.17;;
50379;SDS011;37474;59.468;18.040;2023-08-01T01:49:50;8.57;;;4.97;;
50379;SDS011;37474;59.468;18.040;2023-08-01T01:52:19;12.20;;;4.93;;
50379;SDS011;37474;59.468;18.040;2023-08-01T01:54:48;12.32;;;4.70;;
50379;SDS011;37474;59.468;18.040;2023-08-01T01:57:17;13.07;;;4.45;;
50379;SDS011;37474;59.468;18.040;2023-08-01T01:59:45;9.25;;;3.92;;
50379;SDS011;37474;59.468;18.040;2023-08-01T02:02:14;8.80;;;4.43;;
50379;SDS011;37474;59.468;18.040;2023-08-01T02:04:42;7.33;;;3.90;;
50379;SDS011;37474;59.468;18.040;2023-08-01T02:07:14;6.38;;;3.53;;
50379;SDS011;37474;59.468;18.040;2023-08-01T02:09:42;8.68;;;3.65;;
50379;SDS011;37474;59.468;18.040;2023-08-01T02:12:12;10.97;;;3.53;;
50379;SDS011;37474;59.468;18.040;2023-08-01T02:17:10;7.72;;;2.97;;
50379;SDS011;37474;59.468;18.040;2023-08-01T02:19:38;7.47;;;3.42;;
50379;SDS011;37474;59.468;18.040;2023-08-01T02:22:07;12.65;;;3.83;;
50379;SDS011;37474;59.468;18.040;2023-08-01T02:24:35;7.00;;;3.03;;
50379;SDS011;37474;59.468;18.040;2023-08-01T02:27:04;5.57;;;3.37;;
50379;SDS011;37474;59.468;18.040;2023-08-01T02:29:34;6.27;;;3.30;;
50379;SDS011;37474;59.468;18.040;2023-08-01T02:32:03;7.20;;;3.38;;
50379;SDS011;37474;59.468;18.040;2023-08-01T02:34:32;8.43;;;3.10;;
50379;SDS011;37474;59.468;18.040;2023-08-01T02:37:01;8.17;;;3.13;;
50379;SDS011;37474;59.468;18.040;2023-08-01T02:39:30;8.27;;;3.30;;
50379;SDS011;37474;59.468;18.040;2023-08-01T02:41:58;7.10;;;2.70;;
50379;SDS011;37474;59.468;18.040;2023-08-01T02:44:27;8.33;;;3.30;;
50379;SDS011;37474;59.468;18.040;2023-08-01T02:46:57;6.30;;;2.93;;
50379;SDS011;37474;59.468;18.040;2023-08-01T02:49:25;5.97;;;2.92;;
50379;SDS011;37474;59.468;18.040;2023-08-01T02:51:54;7.00;;;3.03;;
50379;SDS011;37474;59.468;18.040;2023-08-01T02:54:22;7.63;;;2.93;;
50379;SDS011;37474;59.468;18.040;2023-08-01T02:56:51;7.10;;;2.87;;
50379;SDS011;37474;59.468;18.040;2023-08-01T02:59:19;5.77;;;2.70;;
50379;SDS011;37474;59.468;18.040;2023-08-01T03:01:48;7.40;;;3.27;;
50379;SDS011;37474;59.468;18.040;2023-08-01T03:04:18;6.80;;;3.47;;
50379;SDS011;37474;59.468;18.040;2023-08-01T03:06:57;5.30;;;2.87;;
50379;SDS011;37474;59.468;18.040;2023-08-01T03:09:26;6.23;;;2.90;;
50379;SDS011;37474;59.468;18.040;2023-08-01T03:11:55;6.85;;;2.90;;
50379;SDS011;37474;59.468;18.040;2023-08-01T03:14:23;8.40;;;2.92;;
50379;SDS011;37474;59.468;18.040;2023-08-01T03:16:52;4.97;;;2.67;;
50379;SDS011;37474;59.468;18.040;2023-08-01T03:19:22;6.53;;;2.70;;
50379;SDS011;37474;59.468;18.040;2023-08-01T03:21:50;7.50;;;2.63;;
50379;SDS011;37474;59.468;18.040;2023-08-01T03:24:19;7.67;;;2.40;;
50379;SDS011;37474;59.468;18.040;2023-08-01T03:26:48;8.45;;;2.95;;
50379;SDS011;37474;59.468;18.040;2023-08-01T03:29:16;7.28;;;2.30;;
50379;SDS011;37474;59.468;18.040;2023-08-01T03:31:45;7.65;;;2.97;;
50379;SDS011;37474;59.468;18.040;2023-08-01T03:34:14;7.73;;;2.70;;
50379;SDS011;37474;59.468;18.040;2023-08-01T03:36:44;10.85;;;2.90;;
50379;SDS011;37474;59.468;18.040;2023-08-01T03:39:12;7.03;;;2.70;;
50379;SDS011;37474;59.468;18.040;2023-08-01T03:41:41;8.40;;;2.83;;
50379;SDS011;37474;59.468;18.040;2023-08-01T03:44:09;6.20;;;2.67;;
50379;SDS011;37474;59.468;18.040;2023-08-01T03:46:38;6.18;;;2.65;;
50379;SDS011;37474;59.468;18.040;2023-08-01T03:49:07;6.78;;;3.05;;
50379;SDS011;37474;59.468;18.040;2023-08-01T03:51:36;7.40;;;3.08;;
50379;SDS011;37474;59.468;18.040;2023-08-01T03:54:06;6.53;;;2.70;;
50379;SDS011;37474;59.468;18.040;2023-08-01T03:56:39;7.53;;;2.65;;
50379;SDS011;37474;59.468;18.040;2023-08-01T03:59:12;8.68;;;2.80;;
50379;SDS011;37474;59.468;18.040;2023-08-01T04:01:42;5.93;;;2.95;;
50379;SDS011;37474;59.468;18.040;2023-08-01T04:04:10;8.05;;;2.80;;
50379;SDS011;37474;59.468;18.040;2023-08-01T04:06:39;7.13;;;2.50;;
50379;SDS011;37474;59.468;18.040;2023-08-01T04:09:09;6.13;;;2.53;;
50379;SDS011;37474;59.468;18.040;2023-08-01T04:11:38;7.53;;;2.58;;
50379;SDS011;37474;59.468;18.040;2023-08-01T04:14:06;5.93;;;2.45;;
50379;SDS011;37474;59.468;18.040;2023-08-01T04:16:35;7.10;;;2.28;;
50379;SDS011;37474;59.468;18.040;2023-08-01T04:19:04;7.88;;;2.60;;
50379;SDS011;37474;59.468;18.040;2023-08-01T04:21:32;7.70;;;2.42;;
50379;SDS011;37474;59.468;18.040;2023-08-01T04:24:00;5.10;;;2.55;;
50379;SDS011;37474;59.468;18.040;2023-08-01T04:26:30;7.32;;;2.58;;
50379;SDS011;37474;59.468;18.040;2023-08-01T04:28:59;7.70;;;2.75;;
50379;SDS011;37474;59.468;18.040;2023-08-01T04:31:27;5.57;;;2.60;;
50379;SDS011;37474;59.468;18.040;2023-08-01T04:33:56;6.47;;;2.83;;
50379;SDS011;37474;59.468;18.040;2023-08-01T04:36:25;5.05;;;2.72;;
50379;SDS011;37474;59.468;18.040;2023-08-01T04:38:53;7.53;;;2.85;;
50379;SDS011;37474;59.468;18.040;2023-08-01T04:41:22;6.10;;;2.70;;
50379;SDS011;37474;59.468;18.040;2023-08-01T04:43:52;5.10;;;2.55;;
50379;SDS011;37474;59.468;18.040;2023-08-01T04:46:20;5.70;;;2.75;;
50379;SDS011;37474;59.468;18.040;2023-08-01T04:48:49;5.53;;;2.42;;
50379;SDS011;37474;59.468;18.040;2023-08-01T04:51:17;7.50;;;2.60;;
50379;SDS011;37474;59.468;18.040;2023-08-01T04:53:46;5.70;;;3.00;;
50379;SDS011;37474;59.468;18.040;2023-08-01T04:56:15;6.55;;;3.03;;
50379;SDS011;37474;59.468;18.040;2023-08-01T04:58:43;9.10;;;2.90;;
50379;SDS011;37474;59.468;18.040;2023-08-01T05:01:14;8.05;;;2.97;;
50379;SDS011;37474;59.468;18.040;2023-08-01T05:03:42;6.63;;;2.88;;
50379;SDS011;37474;59.468;18.040;2023-08-01T05:06:11;6.15;;;2.70;;
50379;SDS011;37474;59.468;18.040;2023-08-01T05:08:39;9.73;;;2.83;;
50379;SDS011;37474;59.468;18.040;2023-08-01T05:11:08;7.65;;;2.63;;
50379;SDS011;37474;59.468;18.040;2023-08-01T05:13:36;4.70;;;2.13;;
50379;SDS011;37474;59.468;18.040;2023-08-01T05:16:05;8.32;;;3.05;;
50379;SDS011;37474;59.468;18.040;2023-08-01T05:18:35;10.27;;;2.42;;
50379;SDS011;37474;59.468;18.040;2023-08-01T05:21:03;7.32;;;2.55;;
50379;SDS011;37474;59.468;18.040;2023-08-01T05:23:32;7.60;;;2.15;;
50379;SDS011;37474;59.468;18.040;2023-08-01T05:26:00;7.32;;;2.47;;
50379;SDS011;37474;59.468;18.040;2023-08-01T05:28:29;4.53;;;2.10;;
50379;SDS011;37474;59.468;18.040;2023-08-01T05:30:58;4.80;;;1.95;;
50379;SDS011;37474;59.468;18.040;2023-08-01T05:33:26;3.78;;;1.80;;
50379;SDS011;37474;59.468;18.040;2023-08-01T05:35:56;7.05;;;2.17;;
50379;SDS011;37474;59.468;18.040;2023-08-01T05:38:24;4.60;;;2.00;;
50379;SDS011;37474;59.468;18.040;2023-08-01T05:40:53;6.57;;;2.30;;
50379;SDS011;37474;59.468;18.040;2023-08-01T05:43:21;5.38;;;2.00;;
50379;SDS011;37474;59.468;18.040;2023-08-01T05:45:50;5.72;;;1.90;;
50379;SDS011;37474;59.468;18.040;2023-08-01T05:48:19;5.28;;;1.98;;
50379;SDS011;37474;59.468;18.040;2023-08-01T05:50:47;5.30;;;2.17;;
50379;SDS011;37474;59.468;18.040;2023-08-01T05:53:17;5.22;;;2.00;;
50379;SDS011;37474;59.468;18.040;2023-08-01T05:55:46;7.22;;;2.67;;
50379;SDS011;37474;59.468;18.040;2023-08-01T05:58:14;8.50;;;2.40;;
50379;SDS011;37474;59.468;18.040;2023-08-01T06:00:43;6.55;;;2.05;;
50379;SDS011;37474;59.468;18.040;2023-08-01T06:03:11;4.55;;;2.00;;
50379;SDS011;37474;59.468;18.040;2023-08-01T06:05:40;6.72;;;2.20;;
50379;SDS011;37474;59.468;18.040;2023-08-01T06:08:09;6.40;;;1.92;;
50379;SDS011;37474;59.468;18.040;2023-08-01T06:10:39;5.22;;;1.90;;
50379;SDS011;37474;59.468;18.040;2023-08-01T06:13:08;4.65;;;1.70;;
50379;SDS011;37474;59.468;18.040;2023-08-01T06:15:36;7.57;;;1.90;;
50379;SDS011;37474;59.468;18.040;2023-08-01T06:18:05;5.25;;;2.08;;
50379;SDS011;37474;59.468;18.040;2023-08-01T06:20:33;6.60;;;2.00;;
50379;SDS011;37474;59.468;18.040;2023-08-01T06:23:02;9.95;;;2.30;;
50379;SDS011;37474;59.468;18.040;2023-08-01T06:25:30;4.90;;;1.90;;
50379;SDS011;37474;59.468;18.040;2023-08-01T06:28:00;7.35;;;1.92;;
50379;SDS011;37474;59.468;18.040;2023-08-01T06:30:29;5.25;;;1.60;;
50379;SDS011;37474;59.468;18.040;2023-08-01T06:32:57;5.18;;;1.52;;
50379;SDS011;37474;59.468;18.040;2023-08-01T06:35:26;3.95;;;1.95;;
50379;SDS011;37474;59.468;18.040;2023-08-01T06:37:54;5.00;;;1.85;;
50379;SDS011;37474;59.468;18.040;2023-08-01T06:40:23;8.43;;;1.70;;
50379;SDS011;37474;59.468;18.040;2023-08-01T06:42:52;4.72;;;1.70;;
50379;SDS011;37474;59.468;18.040;2023-08-01T06:45:21;4.63;;;1.80;;
50379;SDS011;37474;59.468;18.040;2023-08-01T06:47:50;4.95;;;1.75;;
50379;SDS011;37474;59.468;18.040;2023-08-01T06:50:19;4.53;;;1.83;;
50379;SDS011;37474;59.468;18.040;2023-08-01T06:52:47;4.40;;;1.80;;
50379;SDS011;37474;59.468;18.040;2023-08-01T06:55:16;4.57;;;1.58;;
50379;SDS011;37474;59.468;18.040;2023-08-01T06:57:44;4.32;;;1.83;;
50379;SDS011;37474;59.468;18.040;2023-08-01T07:00:13;4.32;;;1.50;;
50379;SDS011;37474;59.468;18.040;2023-08-01T07:02:44;3.60;;;1.73;;
50379;SDS011;37474;59.468;18.040;2023-08-01T07:05:13;7.53;;;1.73;;
50379;SDS011;37474;59.468;18.040;2023-08-01T07:07:42;5.75;;;1.90;;
50379;SDS011;37474;59.468;18.040;2023-08-01T07:10:11;4.63;;;1.50;;
50379;SDS011;37474;59.468;18.040;2023-08-01T07:12:39;5.50;;;1.58;;
50379;SDS011;37474;59.468;18.040;2023-08-01T07:15:08;6.28;;;1.60;;
50379;SDS011;37474;59.468;18.040;2023-08-01T07:17:37;5.30;;;1.70;;
50379;SDS011;37474;59.468;18.040;2023-08-01T07:20:08;5.47;;;1.80;;
50379;SDS011;37474;59.468;18.040;2023-08-01T07:22:37;7.20;;;2.17;;
50379;SDS011;37474;59.468;18.040;2023-08-01T07:25:05;7.28;;;1.98;;
50379;SDS011;37474;59.468;18.040;2023-08-01T07:27:38;3.33;;;1.70;;
50379;SDS011;37474;59.468;18.040;2023-08-01T07:30:07;4.03;;;1.77;;
50379;SDS011;37474;59.468;18.040;2023-08-01T07:32:36;5.00;;;1.95;;
50379;SDS011;37474;59.468;18.040;2023-08-01T07:35:06;4.47;;;1.73;;
50379;SDS011;37474;59.468;18.040;2023-08-01T07:37:37;3.15;;;1.45;;
50379;SDS011;37474;59.468;18.040;2023-08-01T07:40:05;4.90;;;1.67;;
50379;SDS011;37474;59.468;18.040;2023-08-01T07:42:35;6.35;;;1.60;;
50379;SDS011;37474;59.468;18.040;2023-08-01T07:45:04;5.20;;;1.70;;
50379;SDS011;37474;59.468;18.040;2023-08-01T07:50:02;6.32;;;1.52;;
50379;SDS011;37474;59.468;18.040;2023-08-01T07:52:32;4.03;;;1.83;;
50379;SDS011;37474;59.468;18.040;2023-08-01T07:55:00;5.88;;;1.80;;
50379;SDS011;37474;59.468;18.040;2023-08-01T07:57:29;3.38;;;1.30;;
50379;SDS011;37474;59.468;18.040;2023-08-01T07:59:57;5.38;;;1.80;;
50379;SDS011;37474;59.468;18.040;2023-08-01T08:02:26;3.08;;;1.60;;
50379;SDS011;37474;59.468;18.040;2023-08-01T08:04:54;6.07;;;1.90;;
50379;SDS011;37474;59.468;18.040;2023-08-01T08:07:23;5.75;;;1.98;;
50379;SDS011;37474;59.468;18.040;2023-08-01T08:09:53;4.63;;;1.73;;
50379;SDS011;37474;59.468;18.040;2023-08-01T08:14:50;4.13;;;1.42;;
50379;SDS011;37474;59.468;18.040;2023-08-01T08:17:18;7.43;;;2.00;;
50379;SDS011;37474;59.468;18.040;2023-08-01T08:19:47;4.35;;;1.50;;
50379;SDS011;37474;59.468;18.040;2023-08-01T08:22:15;3.15;;;1.70;;
50379;SDS011;37474;59.468;18.040;2023-08-01T08:24:44;4.03;;;1.55;;
50379;SDS011;37474;59.468;18.040;2023-08-01T08:27:14;4.00;;;1.73;;
50379;SDS011;37474;59.468;18.040;2023-08-01T08:29:43;2.25;;;1.33;;
50379;SDS011;37474;59.468;18.040;2023-08-01T08:32:11;4.20;;;1.60;;
50379;SDS011;37474;59.468;18.040;2023-08-01T08:34:40;3.35;;;1.52;;
50379;SDS011;37474;59.468;18.040;2023-08-01T08:37:08;4.32;;;1.45;;
50379;SDS011;37474;59.468;18.040;2023-08-01T08:39:37;6.70;;;1.60;;
50379;SDS011;37474;59.468;18.040;2023-08-01T08:42:05;3.90;;;1.83;;
50379;SDS011;37474;59.468;18.040;2023-08-01T08:44:38;4.45;;;1.90;;
50379;SDS011;37474;59.468;18.040;2023-08-01T08:47:11;4.28;;;1.80;;
50379;SDS011;37474;59.468;18.040;2023-08-01T08:49:40;3.25;;;1.60;;
50379;SDS011;37474;59.468;18.040;2023-08-01T08:52:09;3.23;;;1.47;;
50379;SDS011;37474;59.468;18.040;2023-08-01T08:54:39;3.40;;;1.40;;
50379;SDS011;37474;59.468;18.040;2023-08-01T08:57:08;4.40;;;1.50;;
50379;SDS011;37474;59.468;18.040;2023-08-01T08:59:38;2.67;;;1.10;;
50379;SDS011;37474;59.468;18.040;2023-08-01T09:02:07;3.83;;;1.30;;
50379;SDS011;37474;59.468;18.040;2023-08-01T09:04:36;2.75;;;1.25;;
50379;SDS011;37474;59.468;18.040;2023-08-01T09:07:06;2.97;;;1.27;;
50379;SDS011;37474;59.468;18.040;2023-08-01T09:09:37;6.50;;;1.42;;
50379;SDS011;37474;59.468;18.040;2023-08-01T09:12:06;2.78;;;1.20;;
50379;SDS011;37474;59.468;18.040;2023-08-01T09:14:38;4.55;;;1.10;;
50379;SDS011;37474;59.468;18.040;2023-08-01T09:17:08;3.33;;;1.30;;
50379;SDS011;37474;59.468;18.040;2023-08-01T09:19:37;4.60;;;1.15;;
50379;SDS011;37474;59.468;18.040;2023-08-01T09:22:09;4.75;;;1.27;;
50379;SDS011;37474;59.468;18.040;2023-08-01T09:24:39;2.60;;;1.10;;
50379;SDS011;37474;59.468;18.040;2023-08-01T09:27:18;3.93;;;1.30;;
50379;SDS011;37474;59.468;18.040;2023-08-01T09:29:51;2.70;;;1.05;;
50379;SDS011;37474;59.468;18.040;2023-08-01T09:34:48;2.90;;;0.98;;
50379;SDS011;37474;59.468;18.040;2023-08-01T09:37:26;3.08;;;1.00;;
50379;SDS011;37474;59.468;18.040;2023-08-01T09:39:55;4.25;;;1.42;;
50379;SDS011;37474;59.468;18.040;2023-08-01T09:42:24;5.32;;;1.27;;
50379;SDS011;37474;59.468;18.040;2023-08-01T09:44:54;2.25;;;1.10;;
50379;SDS011;37474;59.468;18.040;2023-08-01T09:49:51;5.40;;;1.33;;
50379;SDS011;37474;59.468;18.040;2023-08-01T09:52:26;4.30;;;1.30;;
50379;SDS011;37474;59.468;18.040;2023-08-01T09:54:55;1.95;;;1.10;;
50379;SDS011;37474;59.468;18.040;2023-08-01T09:57:23;2.55;;;1.02;;
50379;SDS011;37474;59.468;18.040;2023-08-01T09:59:58;3.88;;;1.05;;
50379;SDS011;37474;59.468;18.040;2023-08-01T10:02:29;8.23;;;1.70;;
50379;SDS011;37474;59.468;18.040;2023-08-01T10:05:00;2.72;;;0.90;;
50379;SDS011;37474;59.468;18.040;2023-08-01T10:07:29;4.30;;;1.30;;
50379;SDS011;37474;59.468;18.040;2023-08-01T10:09:59;3.00;;;1.00;;
50379;SDS011;37474;59.468;18.040;2023-08-01T10:12:30;2.90;;;1.00;;
50379;SDS011;37474;59.468;18.040;2023-08-01T10:15:01;2.33;;;0.90;;
50379;SDS011;37474;59.468;18.040;2023-08-01T10:17:32;3.10;;;1.05;;
50379;SDS011;37474;59.468;18.040;2023-08-01T10:20:03;2.25;;;0.93;;
50379;SDS011;37474;59.468;18.040;2023-08-01T10:22:34;4.53;;;1.00;;
50379;SDS011;37474;59.468;18.040;2023-08-01T10:25:03;1.92;;;1.20;;
50379;SDS011;37474;59.468;18.040;2023-08-01T10:27:33;3.17;;;1.20;;
50379;SDS011;37474;59.468;18.040;2023-08-01T10:30:04;2.00;;;1.20;;
50379;SDS011;37474;59.468;18.040;2023-08-01T10:32:35;2.70;;;1.20;;
50379;SDS011;37474;59.468;18.040;2023-08-01T10:35:05;2.92;;;1.10;;
50379;SDS011;37474;59.468;18.040;2023-08-01T10:37:41;3.20;;;1.00;;
50379;SDS011;37474;59.468;18.040;2023-08-01T10:40:10;2.90;;;1.10;;
50379;SDS011;37474;59.468;18.040;2023-08-01T10:42:42;2.72;;;1.02;;
50379;SDS011;37474;59.468;18.040;2023-08-01T10:45:23;2.40;;;1.00;;
50379;SDS011;37474;59.468;18.040;2023-08-01T10:48:05;2.38;;;1.10;;
50379;SDS011;37474;59.468;18.040;2023-08-01T10:50:34;2.05;;;0.93;;
50379;SDS011;37474;59.468;18.040;2023-08-01T10:53:03;1.48;;;0.90;;
50379;SDS011;37474;59.468;18.040;2023-08-01T10:58:08;3.15;;;1.00;;
50379;SDS011;37474;59.468;18.040;2023-08-01T11:00:39;2.92;;;1.05;;
50379;SDS011;37474;59.468;18.040;2023-08-01T11:05:37;4.15;;;1.42;;
50379;SDS011;37474;59.468;18.040;2023-08-01T11:08:05;3.33;;;1.23;;
50379;SDS011;37474;59.468;18.040;2023-08-01T11:10:33;1.92;;;1.13;;
50379;SDS011;37474;59.468;18.040;2023-08-01T11:13:02;5.10;;;1.33;;
50379;SDS011;37474;59.468;18.040;2023-08-01T11:15:31;4.05;;;1.10;;
50379;SDS011;37474;59.468;18.040;2023-08-01T11:18:01;3.60;;;1.20;;
50379;SDS011;37474;59.468;18.040;2023-08-01T11:20:30;2.53;;;1.17;;
50379;SDS011;37474;59.468;18.040;2023-08-01T11:22:59;3.85;;;1.30;;
50379;SDS011;37474;59.468;18.040;2023-08-01T11:25:32;2.13;;;1.08;;
50379;SDS011;37474;59.468;18.040;2023-08-01T11:28:03;4.30;;;1.40;;
50379;SDS011;37474;59.468;18.040;2023-08-01T11:30:32;3.20;;;1.20;;
50379;SDS011;37474;59.468;18.040;2023-08-01T11:33:12;4.43;;;1.20;;
50379;SDS011;37474;59.468;18.040;2023-08-01T11:35:41;4.18;;;2.10;;
50379;SDS011;37474;59.468;18.040;2023-08-01T11:38:10;4.95;;;1.75;;
50379;SDS011;37474;59.468;18.040;2023-08-01T11:40:39;1.92;;;1.20;;
50379;SDS011;37474;59.468;18.040;2023-08-01T11:43:09;2.40;;;1.17;;
50379;SDS011;37474;59.468;18.040;2023-08-01T11:45:37;6.60;;;1.50;;
50379;SDS011;37474;59.468;18.040;2023-08-01T11:48:17;2.65;;;1.35;;
50379;SDS011;37474;59.468;18.040;2023-08-01T11:50:46;2.80;;;1.50;;
50379;SDS011;37474;59.468;18.040;2023-08-01T11:53:18;1.60;;;1.02;;
50379;SDS011;37474;59.468;18.040;2023-08-01T11:55:48;2.83;;;1.30;;
50379;SDS011;37474;59.468;18.040;2023-08-01T11:58:27;3.45;;;1.30;;
50379;SDS011;37474;59.468;18.040;2023-08-01T12:01:03;3.70;;;1.00;;
50379;SDS011;37474;59.468;18.040;2023-08-01T12:03:41;2.15;;;1.08;;
50379;SDS011;37474;59.468;18.040;2023-08-01T12:06:10;2.67;;;1.17;;
50379;SDS011;37474;59.468;18.040;2023-08-01T12:08:41;2.08;;;1.00;;
50379;SDS011;37474;59.468;18.040;2023-08-01T12:11:22;3.95;;;1.23;;
50379;SDS011;37474;59.468;18.040;2023-08-01T12:14:03;3.17;;;1.10;;
50379;SDS011;37474;59.468;18.040;2023-08-01T12:16:33;1.75;;;1.15;;
50379;SDS011;37474;59.468;18.040;2023-08-01T12:19:03;1.92;;;1.00;;
50379;SDS011;37474;59.468;18.040;2023-08-01T12:21:32;3.53;;;1.23;;
50379;SDS011;37474;59.468;18.040;2023-08-01T12:24:01;2.28;;;1.25;;
50379;SDS011;37474;59.468;18.040;2023-08-01T12:26:30;3.30;;;1.25;;
50379;SDS011;37474;59.468;18.040;2023-08-01T12:28:58;1.50;;;0.98;;
50379;SDS011;37474;59.468;18.040;2023-08-01T12:31:26;2.30;;;1.08;;
50379;SDS011;37474;59.468;18.040;2023-08-01T12:36:26;2.03;;;1.02;;
50379;SDS011;37474;59.468;18.040;2023-08-01T12:41:23;2.97;;;1.10;;
50379;SDS011;37474;59.468;18.040;2023-08-01T12:43:51;1.45;;;0.95;;
50379;SDS011;37474;59.468;18.040;2023-08-01T12:46:20;1.63;;;0.90;;
50379;SDS011;37474;59.468;18.040;2023-08-01T12:48:48;1.90;;;0.95;;
50379;SDS011;37474;59.468;18.040;2023-08-01T12:51:17;3.33;;;1.10;;
50379;SDS011;37474;59.468;18.040;2023-08-01T12:53:47;2.00;;;1.02;;
50379;SDS011;37474;59.468;18.040;2023-08-01T12:56:15;1.30;;;1.10;;
50379;SDS011;37474;59.468;18.040;2023-08-01T12:58:44;3.08;;;0.90;;
50379;SDS011;37474;59.468;18.040;2023-08-01T13:01:12;1.63;;;1.08;;
50379;SDS011;37474;59.468;18.040;2023-08-01T13:03:41;1.88;;;0.93;;
50379;SDS011;37474;59.468;18.040;2023-08-01T13:06:10;2.53;;;1.00;;
50379;SDS011;37474;59.468;18.040;2023-08-01T13:08:40;3.08;;;1.05;;
50379;SDS011;37474;59.468;18.040;2023-08-01T13:11:13;2.33;;;1.00;;
50379;SDS011;37474;59.468;18.040;2023-08-01T13:13:42;2.35;;;1.00;;
50379;SDS011;37474;59.468;18.040;2023-08-01T13:16:12;1.65;;;0.82;;
50379;SDS011;37474;59.468;18.040;2023-08-01T13:18:41;2.35;;;1.02;;
50379;SDS011;37474;59.468;18.040;2023-08-01T13:21:12;2.63;;;1.00;;
50379;SDS011;37474;59.468;18.040;2023-08-01T13:23:41;2.90;;;0.95;;
50379;SDS011;37474;59.468;18.040;2023-08-01T13:26:10;1.95;;;0.90;;
50379;SDS011;37474;59.468;18.040;2023-08-01T13:28:39;1.70;;;1.10;;
50379;SDS011;37474;59.468;18.040;2023-08-01T13:31:08;3.28;;;0.90;;
50379;SDS011;37474;59.468;18.040;2023-08-01T13:33:36;1.48;;;0.80;;
50379;SDS011;37474;59.468;18.040;2023-08-01T13:36:05;2.45;;;1.15;;
50379;SDS011;37474;59.468;18.040;2023-08-01T13:38:34;2.88;;;1.30;;
50379;SDS011;37474;59.468;18.040;2023-08-01T13:41:02;2.33;;;1.02;;
50379;SDS011;37474;59.468;18.040;2023-08-01T13:43:31;1.65;;;0.90;;
50379;SDS011;37474;59.468;18.040;2023-08-01T13:46:07;2.72;;;1.08;;
50379;SDS011;37474;59.468;18.040;2023-08-01T13:48:54;1.55;;;0.82;;
50379;SDS011;37474;59.468;18.040;2023-08-01T13:51:23;2.13;;;0.80;;
50379;SDS011;37474;59.468;18.040;2023-08-01T13:53:52;1.10;;;0.90;;
50379;SDS011;37474;59.468;18.040;2023-08-01T13:56:21;1.05;;;0.85;;
50379;SDS011;37474;59.468;18.040;2023-08-01T13:58:50;2.72;;;0.90;;
50379;SDS011;37474;59.468;18.040;2023-08-01T14:01:21;1.60;;;0.80;;
50379;SDS011;37474;59.468;18.040;2023-08-01T14:03:49;1.10;;;0.77;;
50379;SDS011;37474;59.468;18.040;2023-08-01T14:06:18;1.73;;;1.10;;
50379;SDS011;37474;59.468;18.040;2023-08-01T14:08:46;2.67;;;1.10;;
50379;SDS011;37474;59.468;18.040;2023-08-01T14:11:16;1.35;;;0.80;;
50379;SDS011;37474;59.468;18.040;2023-08-01T14:13:45;1.27;;;0.85;;
50379;SDS011;37474;59.468;18.040;2023-08-01T14:16:13;2.50;;;0.82;;
50379;SDS011;37474;59.468;18.040;2023-08-01T14:18:44;2.25;;;0.90;;
50379;SDS011;37474;59.468;18.040;2023-08-01T14:21:12;1.83;;;0.93;;
50379;SDS011;37474;59.468;18.040;2023-08-01T14:23:41;1.92;;;0.88;;
50379;SDS011;37474;59.468;18.040;2023-08-01T14:26:09;2.00;;;0.98;;
50379;SDS011;37474;59.468;18.040;2023-08-01T14:28:38;2.20;;;1.00;;
50379;SDS011;37474;59.468;18.040;2023-08-01T14:31:07;1.70;;;0.90;;
50379;SDS011;37474;59.468;18.040;2023-08-01T14:33:35;1.73;;;1.00;;
50379;SDS011;37474;59.468;18.040;2023-08-01T14:36:08;1.20;;;1.02;;
50379;SDS011;37474;59.468;18.040;2023-08-01T14:38:39;2.47;;;1.17;;
50379;SDS011;37474;59.468;18.040;2023-08-01T14:41:07;2.13;;;1.20;;
50379;SDS011;37474;59.468;18.040;2023-08-01T14:43:55;2.20;;;0.90;;
50379;SDS011;37474;59.468;18.040;2023-08-01T14:46:24;1.58;;;1.02;;
50379;SDS011;37474;59.468;18.040;2023-08-01T14:48:52;1.25;;;1.00;;
50379;SDS011;37474;59.468;18.040;2023-08-01T14:51:22;1.58;;;1.05;;
50379;SDS011;37474;59.468;18.040;2023-08-01T14:53:51;1.92;;;0.88;;
50379;SDS011;37474;59.468;18.040;2023-08-01T14:56:19;1.45;;;0.88;;
50379;SDS011;37474;59.468;18.040;2023-08-01T14:58:48;3.08;;;0.88;;
50379;SDS011;37474;59.468;18.040;2023-08-01T15:01:16;3.13;;;1.23;;
50379;SDS011;37474;59.468;18.040;2023-08-01T15:03:46;1.55;;;0.90;;
50379;SDS011;37474;59.468;18.040;2023-08-01T15:06:14;2.72;;;1.10;;
50379;SDS011;37474;59.468;18.040;2023-08-01T15:08:44;4.35;;;1.10;;